sensor_id;sensor_type;location;lat;lon;timestamp;P1;durP1;ratioP1;P2;durP2;ratioP2
19836;SDS011;10079;55.740;37.662;2022-08-02T00:01:44;5.30;;;4.43;;
19836;SDS011;10079;55.740;37.662;2022-08-02T00:04:28;7.13;;;5.03;;
19836;SDS011;10079;55.740;37.662;2022-08-02T00:07:12;4.70;;;4.00;;
19836;SDS011;10079;55.740;37.662;2022-08-02T00:20:33;6.57;;;4.37;;
19836;SDS011;10079;55.740;37.662;2022-08-02T00:23:13;6.50;;;4.00;;
19836;SDS011;10079;55.740;37.662;2022-08-02T00:36:29;8.53;;;4.90;;
19836;SDS011;10079;55.740;37.662;2022-08-02T00:39:09;6.80;;;4.13;;
19836;SDS011;10079;55.740;37.662;2022-08-02T00:41:51;7.47;;;4.30;;
19836;SDS011;10079;55.740;37.662;2022-08-02T00:44:32;5.00;;;4.20;;
19836;SDS011;10079;55.740;37.662;2022-08-02T00:47:13;5.80;;;4.43;;
19836;SDS011;10079;55.740;37.662;2022-08-02T00:49:57;8.20;;;4.90;;
19836;SDS011;10079;55.740;37.662;2022-08-02T00:52:38;7.03;;;4.40;;
19836;SDS011;10079;55.740;37.662;2022-08-02T00:55:23;7.13;;;4.67;;
19836;SDS011;10079;55.740;37.662;2022-08-02T00:58:04;7.70;;;4.50;;
19836;SDS011;10079;55.740;37.662;2022-08-02T01:00:48;5.90;;;4.23;;
19836;SDS011;10079;55.740;37.662;2022-08-02T01:03:32;6.40;;;4.37;;
19836;SDS011;10079;55.740;37.662;2022-08-02T01:06:13;7.00;;;5.03;;
19836;SDS011;10079;55.740;37.662;2022-08-02T01:08:53;7.23;;;5.00;;
19836;SDS011;10079;55.740;37.662;2022-08-02T01:11:35;8.13;;;4.67;;
19836;SDS011;10079;55.740;37.662;2022-08-02T01:14:15;8.00;;;4.70;;
19836;SDS011;10079;55.740;37.662;2022-08-02T01:17:04;9.17;;;4.30;;
19836;SDS011;10079;55.740;37.662;2022-08-02T01:20:07;11.83;;;4.83;;
19836;SDS011;10079;55.740;37.662;2022-08-02T01:23:24;6.00;;;4.87;;
19836;SDS011;10079;55.740;37.662;2022-08-02T01:26:10;8.87;;;4.70;;
19836;SDS011;10079;55.740;37.662;2022-08-02T01:29:00;8.90;;;4.90;;
19836;SDS011;10079;55.740;37.662;2022-08-02T01:42:25;7.40;;;5.00;;
19836;SDS011;10079;55.740;37.662;2022-08-02T01:45:09;6.17;;;4.80;;
19836;SDS011;10079;55.740;37.662;2022-08-02T01:47:50;8.73;;;5.57;;
19836;SDS011;10079;55.740;37.662;2022-08-02T01:50:35;8.23;;;5.80;;
19836;SDS011;10079;55.740;37.662;2022-08-02T01:53:15;7.43;;;5.37;;
19836;SDS011;10079;55.740;37.662;2022-08-02T01:55:57;7.63;;;5.17;;
19836;SDS011;10079;55.740;37.662;2022-08-02T02:09:14;7.70;;;5.43;;
19836;SDS011;10079;55.740;37.662;2022-08-02T02:11:55;10.33;;;5.63;;
19836;SDS011;10079;55.740;37.662;2022-08-02T02:14:36;9.73;;;5.80;;
19836;SDS011;10079;55.740;37.662;2022-08-02T02:17:17;7.33;;;5.43;;
19836;SDS011;10079;55.740;37.662;2022-08-02T02:19:58;7.93;;;5.70;;
19836;SDS011;10079;55.740;37.662;2022-08-02T02:22:39;9.40;;;6.00;;
19836;SDS011;10079;55.740;37.662;2022-08-02T02:25:21;6.27;;;5.30;;
19836;SDS011;10079;55.740;37.662;2022-08-02T02:28:02;11.87;;;5.90;;
19836;SDS011;10079;55.740;37.662;2022-08-02T02:30:47;8.50;;;5.47;;
19836;SDS011;10079;55.740;37.662;2022-08-02T02:33:30;9.03;;;5.63;;
19836;SDS011;10079;55.740;37.662;2022-08-02T02:36:11;8.27;;;5.40;;
19836;SDS011;10079;55.740;37.662;2022-08-02T02:38:52;5.53;;;5.00;;
19836;SDS011;10079;55.740;37.662;2022-08-02T02:41:36;9.63;;;5.60;;
19836;SDS011;10079;55.740;37.662;2022-08-02T02:44:17;9.77;;;5.73;;
19836;SDS011;10079;55.740;37.662;2022-08-02T02:46:58;8.73;;;5.90;;
19836;SDS011;10079;55.740;37.662;2022-08-02T02:49:38;9.73;;;5.53;;
19836;SDS011;10079;55.740;37.662;2022-08-02T02:52:23;8.10;;;5.20;;
19836;SDS011;10079;55.740;37.662;2022-08-02T02:55:07;8.97;;;5.30;;
19836;SDS011;10079;55.740;37.662;2022-08-02T02:57:48;9.23;;;5.23;;
19836;SDS011;10079;55.740;37.662;2022-08-02T03:00:29;7.40;;;5.20;;
19836;SDS011;10079;55.740;37.662;2022-08-02T03:03:10;7.20;;;5.07;;
19836;SDS011;10079;55.740;37.662;2022-08-02T03:05:55;8.23;;;5.40;;
19836;SDS011;10079;55.740;37.662;2022-08-02T03:08:47;7.87;;;4.90;;
19836;SDS011;10079;55.740;37.662;2022-08-02T03:11:32;8.33;;;5.13;;
19836;SDS011;10079;55.740;37.662;2022-08-02T03:14:24;9.67;;;5.63;;
19836;SDS011;10079;55.740;37.662;2022-08-02T03:27:39;7.60;;;4.60;;
19836;SDS011;10079;55.740;37.662;2022-08-02T03:30:20;8.00;;;5.00;;
19836;SDS011;10079;55.740;37.662;2022-08-02T03:33:00;8.60;;;4.47;;
19836;SDS011;10079;55.740;37.662;2022-08-02T03:35:46;7.87;;;4.87;;
19836;SDS011;10079;55.740;37.662;2022-08-02T03:38:25;7.07;;;4.57;;
19836;SDS011;10079;55.740;37.662;2022-08-02T03:41:10;5.20;;;4.35;;
19836;SDS011;10079;55.740;37.662;2022-08-02T03:43:50;6.00;;;4.45;;
19836;SDS011;10079;55.740;37.662;2022-08-02T03:46:34;5.45;;;4.30;;
19836;SDS011;10079;55.740;37.662;2022-08-02T03:49:19;5.68;;;4.72;;
19836;SDS011;10079;55.740;37.662;2022-08-02T03:51:59;5.22;;;4.03;;
19836;SDS011;10079;55.740;37.662;2022-08-02T03:54:44;5.75;;;4.05;;
19836;SDS011;10079;55.740;37.662;2022-08-02T03:57:24;11.57;;;4.57;;
19836;SDS011;10079;55.740;37.662;2022-08-02T04:10:51;7.65;;;4.40;;
19836;SDS011;10079;55.740;37.662;2022-08-02T04:13:36;4.90;;;3.70;;
19836;SDS011;10079;55.740;37.662;2022-08-02T04:27:02;5.07;;;3.92;;
19836;SDS011;10079;55.740;37.662;2022-08-02T04:40:20;5.10;;;3.60;;
19836;SDS011;10079;55.740;37.662;2022-08-02T04:43:01;8.75;;;4.68;;
19836;SDS011;10079;55.740;37.662;2022-08-02T04:45:42;8.63;;;4.28;;
19836;SDS011;10079;55.740;37.662;2022-08-02T04:48:22;6.87;;;4.50;;
19836;SDS011;10079;55.740;37.662;2022-08-02T04:51:03;9.30;;;4.37;;
19836;SDS011;10079;55.740;37.662;2022-08-02T04:53:44;9.18;;;4.47;;
19836;SDS011;10079;55.740;37.662;2022-08-02T04:56:33;5.43;;;4.53;;
19836;SDS011;10079;55.740;37.662;2022-08-02T04:59:14;10.00;;;4.57;;
19836;SDS011;10079;55.740;37.662;2022-08-02T05:12:29;6.05;;;4.43;;
19836;SDS011;10079;55.740;37.662;2022-08-02T05:15:11;5.40;;;4.00;;
19836;SDS011;10079;55.740;37.662;2022-08-02T05:17:52;7.68;;;4.93;;
19836;SDS011;10079;55.740;37.662;2022-08-02T05:20:36;8.07;;;4.25;;
19836;SDS011;10079;55.740;37.662;2022-08-02T05:23:18;4.78;;;4.32;;
19836;SDS011;10079;55.740;37.662;2022-08-02T05:25:58;5.05;;;4.60;;
19836;SDS011;10079;55.740;37.662;2022-08-02T05:28:39;9.10;;;4.00;;
19836;SDS011;10079;55.740;37.662;2022-08-02T05:31:23;5.22;;;4.40;;
19836;SDS011;10079;55.740;37.662;2022-08-02T05:34:04;6.55;;;4.30;;
19836;SDS011;10079;55.740;37.662;2022-08-02T05:36:45;10.55;;;4.68;;
19836;SDS011;10079;55.740;37.662;2022-08-02T05:39:25;8.88;;;4.50;;
19836;SDS011;10079;55.740;37.662;2022-08-02T05:42:06;7.85;;;4.22;;
19836;SDS011;10079;55.740;37.662;2022-08-02T05:44:47;6.95;;;4.30;;
19836;SDS011;10079;55.740;37.662;2022-08-02T05:47:28;9.00;;;4.68;;
19836;SDS011;10079;55.740;37.662;2022-08-02T05:50:09;9.60;;;4.62;;
19836;SDS011;10079;55.740;37.662;2022-08-02T05:52:51;8.20;;;4.20;;
19836;SDS011;10079;55.740;37.662;2022-08-02T05:55:33;4.78;;;4.25;;
19836;SDS011;10079;55.740;37.662;2022-08-02T05:58:23;8.95;;;4.82;;
19836;SDS011;10079;55.740;37.662;2022-08-02T06:01:03;9.23;;;4.70;;
19836;SDS011;10079;55.740;37.662;2022-08-02T06:03:50;8.45;;;4.57;;
19836;SDS011;10079;55.740;37.662;2022-08-02T06:06:31;7.72;;;4.32;;
19836;SDS011;10079;55.740;37.662;2022-08-02T06:09:15;10.48;;;4.55;;
19836;SDS011;10079;55.740;37.662;2022-08-02T06:11:57;8.70;;;4.25;;
19836;SDS011;10079;55.740;37.662;2022-08-02T06:14:39;7.15;;;4.18;;
19836;SDS011;10079;55.740;37.662;2022-08-02T06:17:21;9.50;;;4.55;;
19836;SDS011;10079;55.740;37.662;2022-08-02T06:20:05;9.90;;;4.30;;
19836;SDS011;10079;55.740;37.662;2022-08-02T06:22:50;10.13;;;4.60;;
19836;SDS011;10079;55.740;37.662;2022-08-02T06:25:32;8.20;;;4.30;;
19836;SDS011;10079;55.740;37.662;2022-08-02T06:28:12;7.10;;;4.00;;
19836;SDS011;10079;55.740;37.662;2022-08-02T06:41:41;10.02;;;4.47;;
19836;SDS011;10079;55.740;37.662;2022-08-02T06:44:25;6.05;;;4.25;;
19836;SDS011;10079;55.740;37.662;2022-08-02T06:47:06;7.90;;;4.40;;
19836;SDS011;10079;55.740;37.662;2022-08-02T06:49:50;9.70;;;4.65;;
19836;SDS011;10079;55.740;37.662;2022-08-02T06:52:31;11.43;;;5.50;;
19836;SDS011;10079;55.740;37.662;2022-08-02T06:55:12;10.32;;;4.55;;
19836;SDS011;10079;55.740;37.662;2022-08-02T06:57:57;6.32;;;3.47;;
19836;SDS011;10079;55.740;37.662;2022-08-02T07:00:38;4.97;;;3.35;;
19836;SDS011;10079;55.740;37.662;2022-08-02T07:03:22;4.47;;;3.05;;
19836;SDS011;10079;55.740;37.662;2022-08-02T07:06:04;4.22;;;3.08;;
19836;SDS011;10079;55.740;37.662;2022-08-02T07:08:47;2.92;;;2.60;;
19836;SDS011;10079;55.740;37.662;2022-08-02T07:11:37;2.85;;;2.65;;
19836;SDS011;10079;55.740;37.662;2022-08-02T07:14:21;2.53;;;2.25;;
19836;SDS011;10079;55.740;37.662;2022-08-02T07:17:11;3.42;;;2.67;;
19836;SDS011;10079;55.740;37.662;2022-08-02T07:19:56;4.47;;;2.67;;
19836;SDS011;10079;55.740;37.662;2022-08-02T07:22:36;3.67;;;2.70;;
19836;SDS011;10079;55.740;37.662;2022-08-02T07:25:17;5.12;;;3.00;;
19836;SDS011;10079;55.740;37.662;2022-08-02T07:28:02;4.07;;;2.92;;
19836;SDS011;10079;55.740;37.662;2022-08-02T07:30:44;3.30;;;2.50;;
19836;SDS011;10079;55.740;37.662;2022-08-02T07:33:28;2.70;;;2.50;;
19836;SDS011;10079;55.740;37.662;2022-08-02T07:36:12;3.92;;;2.70;;
19836;SDS011;10079;55.740;37.662;2022-08-02T07:38:53;3.15;;;2.90;;
19836;SDS011;10079;55.740;37.662;2022-08-02T07:41:34;4.12;;;2.80;;
19836;SDS011;10079;55.740;37.662;2022-08-02T07:44:14;3.08;;;2.60;;
19836;SDS011;10079;55.740;37.662;2022-08-02T07:46:55;3.50;;;2.22;;
19836;SDS011;10079;55.740;37.662;2022-08-02T07:49:36;2.72;;;2.53;;
19836;SDS011;10079;55.740;37.662;2022-08-02T07:52:26;3.22;;;2.72;;
19836;SDS011;10079;55.740;37.662;2022-08-02T07:55:07;3.10;;;2.78;;
19836;SDS011;10079;55.740;37.662;2022-08-02T07:57:49;4.82;;;2.90;;
19836;SDS011;10079;55.740;37.662;2022-08-02T08:00:33;6.70;;;3.00;;
19836;SDS011;10079;55.740;37.662;2022-08-02T08:03:23;5.35;;;2.97;;
19836;SDS011;10079;55.740;37.662;2022-08-02T08:06:07;3.22;;;2.92;;
19836;SDS011;10079;55.740;37.662;2022-08-02T08:08:48;3.85;;;2.92;;
19836;SDS011;10079;55.740;37.662;2022-08-02T08:11:34;3.67;;;2.67;;
19836;SDS011;10079;55.740;37.662;2022-08-02T08:14:15;3.30;;;2.50;;
19836;SDS011;10079;55.740;37.662;2022-08-02T08:16:56;4.22;;;2.80;;
19836;SDS011;10079;55.740;37.662;2022-08-02T08:19:40;2.85;;;2.58;;
19836;SDS011;10079;55.740;37.662;2022-08-02T08:22:21;2.85;;;2.37;;
19836;SDS011;10079;55.740;37.662;2022-08-02T08:35:39;2.75;;;2.53;;
19836;SDS011;10079;55.740;37.662;2022-08-02T08:38:19;6.22;;;2.80;;
19836;SDS011;10079;55.740;37.662;2022-08-02T08:41:01;4.43;;;2.70;;
19836;SDS011;10079;55.740;37.662;2022-08-02T08:43:42;2.62;;;2.42;;
19836;SDS011;10079;55.740;37.662;2022-08-02T08:46:27;3.10;;;2.80;;
19836;SDS011;10079;55.740;37.662;2022-08-02T08:49:09;3.35;;;2.70;;
19836;SDS011;10079;55.740;37.662;2022-08-02T08:52:03;3.20;;;2.90;;
19836;SDS011;10079;55.740;37.662;2022-08-02T09:05:16;3.80;;;3.42;;
19836;SDS011;10079;55.740;37.662;2022-08-02T09:07:57;3.03;;;2.83;;
19836;SDS011;10079;55.740;37.662;2022-08-02T09:10:40;3.00;;;2.70;;
19836;SDS011;10079;55.740;37.662;2022-08-02T09:13:24;3.65;;;3.10;;
19836;SDS011;10079;55.740;37.662;2022-08-02T09:16:05;3.92;;;3.10;;
19836;SDS011;10079;55.740;37.662;2022-08-02T09:18:45;4.00;;;3.40;;
19836;SDS011;10079;55.740;37.662;2022-08-02T09:24:14;4.00;;;3.42;;
19836;SDS011;10079;55.740;37.662;2022-08-02T09:27:08;4.53;;;2.62;;
19836;SDS011;10079;55.740;37.662;2022-08-02T09:29:48;6.07;;;2.87;;
19836;SDS011;10079;55.740;37.662;2022-08-02T09:32:43;3.00;;;2.72;;
19836;SDS011;10079;55.740;37.662;2022-08-02T09:35:34;3.47;;;2.90;;
19836;SDS011;10079;55.740;37.662;2022-08-02T09:38:15;2.58;;;2.37;;
19836;SDS011;10079;55.740;37.662;2022-08-02T09:51:51;4.18;;;2.75;;
19836;SDS011;10079;55.740;37.662;2022-08-02T09:54:44;3.72;;;2.67;;
19836;SDS011;10079;55.740;37.662;2022-08-02T10:08:16;3.17;;;2.85;;
19836;SDS011;10079;55.740;37.662;2022-08-02T10:10:57;2.80;;;2.53;;
19836;SDS011;10079;55.740;37.662;2022-08-02T10:13:38;2.53;;;2.35;;
19836;SDS011;10079;55.740;37.662;2022-08-02T10:26:55;2.90;;;2.60;;
19836;SDS011;10079;55.740;37.662;2022-08-02T10:29:39;4.03;;;2.87;;
19836;SDS011;10079;55.740;37.662;2022-08-02T10:32:21;3.37;;;2.80;;
19836;SDS011;10079;55.740;37.662;2022-08-02T10:35:05;3.55;;;2.97;;
19836;SDS011;10079;55.740;37.662;2022-08-02T10:37:59;3.45;;;2.62;;
19836;SDS011;10079;55.740;37.662;2022-08-02T10:40:42;2.78;;;2.53;;
19836;SDS011;10079;55.740;37.662;2022-08-02T10:43:40;3.17;;;2.90;;
19836;SDS011;10079;55.740;37.662;2022-08-02T10:46:28;3.70;;;3.00;;
19836;SDS011;10079;55.740;37.662;2022-08-02T10:49:12;5.05;;;3.05;;
19836;SDS011;10079;55.740;37.662;2022-08-02T10:54:49;3.15;;;2.62;;
19836;SDS011;10079;55.740;37.662;2022-08-02T10:57:30;4.18;;;2.42;;
19836;SDS011;10079;55.740;37.662;2022-08-02T11:10:46;3.97;;;2.58;;
19836;SDS011;10079;55.740;37.662;2022-08-02T11:13:29;3.70;;;2.28;;
19836;SDS011;10079;55.740;37.662;2022-08-02T11:16:09;2.75;;;2.55;;
19836;SDS011;10079;55.740;37.662;2022-08-02T11:19:02;2.72;;;2.53;;
19836;SDS011;10079;55.740;37.662;2022-08-02T11:21:43;2.75;;;2.55;;
19836;SDS011;10079;55.740;37.662;2022-08-02T11:24:29;3.60;;;2.85;;
19836;SDS011;10079;55.740;37.662;2022-08-02T11:27:17;3.15;;;2.85;;
19836;SDS011;10079;55.740;37.662;2022-08-02T11:40:36;2.97;;;2.45;;
19836;SDS011;10079;55.740;37.662;2022-08-02T11:43:18;3.65;;;2.53;;
19836;SDS011;10079;55.740;37.662;2022-08-02T11:46:03;4.32;;;2.75;;
19836;SDS011;10079;55.740;37.662;2022-08-02T11:48:47;2.72;;;2.53;;
19836;SDS011;10079;55.740;37.662;2022-08-02T11:51:28;4.35;;;2.67;;
19836;SDS011;10079;55.740;37.662;2022-08-02T11:54:09;2.50;;;2.30;;
19836;SDS011;10079;55.740;37.662;2022-08-02T11:56:50;8.32;;;2.47;;
19836;SDS011;10079;55.740;37.662;2022-08-02T11:59:31;3.85;;;2.60;;
19836;SDS011;10079;55.740;37.662;2022-08-02T12:02:12;2.92;;;2.00;;
19836;SDS011;10079;55.740;37.662;2022-08-02T12:04:53;2.05;;;1.90;;
19836;SDS011;10079;55.740;37.662;2022-08-02T12:07:35;2.70;;;2.50;;
19836;SDS011;10079;55.740;37.662;2022-08-02T12:10:17;2.42;;;2.15;;
19836;SDS011;10079;55.740;37.662;2022-08-02T12:13:01;3.70;;;2.50;;
19836;SDS011;10079;55.740;37.662;2022-08-02T12:15:43;5.25;;;2.75;;
19836;SDS011;10079;55.740;37.662;2022-08-02T12:29:00;3.83;;;2.30;;
19836;SDS011;10079;55.740;37.662;2022-08-02T12:31:44;3.35;;;2.45;;
19836;SDS011;10079;55.740;37.662;2022-08-02T12:34:24;2.58;;;2.35;;
19836;SDS011;10079;55.740;37.662;2022-08-02T12:37:08;2.35;;;2.15;;
19836;SDS011;10079;55.740;37.662;2022-08-02T12:39:52;2.33;;;2.12;;
19836;SDS011;10079;55.740;37.662;2022-08-02T12:42:47;2.20;;;2.00;;
19836;SDS011;10079;55.740;37.662;2022-08-02T12:45:29;3.12;;;2.50;;
19836;SDS011;10079;55.740;37.662;2022-08-02T12:48:11;2.83;;;2.50;;
19836;SDS011;10079;55.740;37.662;2022-08-02T12:50:52;2.67;;;2.40;;
19836;SDS011;10079;55.740;37.662;2022-08-02T12:53:34;2.35;;;2.15;;
19836;SDS011;10079;55.740;37.662;2022-08-02T13:07:01;2.33;;;2.12;;
19836;SDS011;10079;55.740;37.662;2022-08-02T13:09:54;3.72;;;2.17;;
19836;SDS011;10079;55.740;37.662;2022-08-02T13:12:46;3.28;;;2.65;;
19836;SDS011;10079;55.740;37.662;2022-08-02T13:26:05;3.58;;;2.50;;
19836;SDS011;10079;55.740;37.662;2022-08-02T13:28:55;3.70;;;2.20;;
19836;SDS011;10079;55.740;37.662;2022-08-02T13:31:48;3.78;;;2.35;;
19836;SDS011;10079;55.740;37.662;2022-08-02T13:34:28;3.25;;;2.40;;
19836;SDS011;10079;55.740;37.662;2022-08-02T13:37:09;2.70;;;2.50;;
19836;SDS011;10079;55.740;37.662;2022-08-02T13:39:54;2.90;;;2.55;;
19836;SDS011;10079;55.740;37.662;2022-08-02T13:42:35;2.45;;;2.25;;
19836;SDS011;10079;55.740;37.662;2022-08-02T13:45:19;2.70;;;2.45;;
19836;SDS011;10079;55.740;37.662;2022-08-02T13:48:00;3.05;;;2.20;;
19836;SDS011;10079;55.740;37.662;2022-08-02T13:50:41;5.25;;;2.40;;
19836;SDS011;10079;55.740;37.662;2022-08-02T13:53:30;4.25;;;2.70;;
19836;SDS011;10079;55.740;37.662;2022-08-02T13:56:11;4.12;;;2.80;;
19836;SDS011;10079;55.740;37.662;2022-08-02T13:58:52;3.80;;;2.40;;
19836;SDS011;10079;55.740;37.662;2022-08-02T14:03:17;3.37;;;2.50;;
19836;SDS011;10079;55.740;37.662;2022-08-02T14:06:01;2.85;;;2.60;;
19836;SDS011;10079;55.740;37.662;2022-08-02T14:08:46;2.85;;;2.55;;
19836;SDS011;10079;55.740;37.662;2022-08-02T14:22:14;3.30;;;2.47;;
19836;SDS011;10079;55.740;37.662;2022-08-02T14:24:58;3.05;;;2.75;;
19836;SDS011;10079;55.740;37.662;2022-08-02T14:27:39;4.40;;;2.53;;
19836;SDS011;10079;55.740;37.662;2022-08-02T14:30:23;2.78;;;2.58;;
19836;SDS011;10079;55.740;37.662;2022-08-02T14:33:08;2.90;;;2.70;;
19836;SDS011;10079;55.740;37.662;2022-08-02T14:35:48;2.70;;;2.50;;
19836;SDS011;10079;55.740;37.662;2022-08-02T14:38:29;5.57;;;3.03;;
19836;SDS011;10079;55.740;37.662;2022-08-02T14:41:13;2.80;;;2.60;;
19836;SDS011;10079;55.740;37.662;2022-08-02T14:43:54;3.12;;;2.50;;
19836;SDS011;10079;55.740;37.662;2022-08-02T14:46:36;2.97;;;2.62;;
19836;SDS011;10079;55.740;37.662;2022-08-02T14:49:16;2.83;;;2.40;;
19836;SDS011;10079;55.740;37.662;2022-08-02T14:52:00;2.47;;;2.28;;
19836;SDS011;10079;55.740;37.662;2022-08-02T14:54:41;5.18;;;2.70;;
19836;SDS011;10079;55.740;37.662;2022-08-02T14:57:22;3.40;;;2.30;;
19836;SDS011;10079;55.740;37.662;2022-08-02T15:00:03;2.75;;;2.30;;
19836;SDS011;10079;55.740;37.662;2022-08-02T15:02:49;4.60;;;2.50;;
19836;SDS011;10079;55.740;37.662;2022-08-02T15:05:30;2.83;;;2.50;;
19836;SDS011;10079;55.740;37.662;2022-08-02T15:08:14;3.80;;;2.83;;
19836;SDS011;10079;55.740;37.662;2022-08-02T15:10:55;2.47;;;2.28;;
19836;SDS011;10079;55.740;37.662;2022-08-02T15:13:39;3.47;;;2.40;;
19836;SDS011;10079;55.740;37.662;2022-08-02T15:16:20;3.05;;;2.75;;
19836;SDS011;10079;55.740;37.662;2022-08-02T15:19:01;3.67;;;2.70;;
19836;SDS011;10079;55.740;37.662;2022-08-02T15:21:42;2.97;;;2.47;;
19836;SDS011;10079;55.740;37.662;2022-08-02T15:24:23;3.75;;;2.70;;
19836;SDS011;10079;55.740;37.662;2022-08-02T15:27:04;3.95;;;2.67;;
19836;SDS011;10079;55.740;37.662;2022-08-02T15:29:48;2.55;;;2.35;;
19836;SDS011;10079;55.740;37.662;2022-08-02T15:32:29;4.25;;;3.22;;
19836;SDS011;10079;55.740;37.662;2022-08-02T15:35:13;5.97;;;2.90;;
19836;SDS011;10079;55.740;37.662;2022-08-02T15:38:03;3.10;;;2.53;;
19836;SDS011;10079;55.740;37.662;2022-08-02T15:40:44;5.00;;;2.90;;
19836;SDS011;10079;55.740;37.662;2022-08-02T15:43:28;3.22;;;2.53;;
19836;SDS011;10079;55.740;37.662;2022-08-02T15:46:09;2.83;;;2.58;;
19836;SDS011;10079;55.740;37.662;2022-08-02T15:48:50;3.62;;;2.62;;
19836;SDS011;10079;55.740;37.662;2022-08-02T15:51:31;3.05;;;2.55;;
19836;SDS011;10079;55.740;37.662;2022-08-02T15:54:12;6.45;;;2.83;;
19836;SDS011;10079;55.740;37.662;2022-08-02T15:56:53;3.42;;;2.78;;
19836;SDS011;10079;55.740;37.662;2022-08-02T15:59:46;4.53;;;2.90;;
19836;SDS011;10079;55.740;37.662;2022-08-02T16:02:26;3.30;;;2.42;;
19836;SDS011;10079;55.740;37.662;2022-08-02T16:05:07;3.50;;;2.55;;
19836;SDS011;10079;55.740;37.662;2022-08-02T16:07:52;2.53;;;2.28;;
19836;SDS011;10079;55.740;37.662;2022-08-02T16:10:36;5.07;;;2.72;;
19836;SDS011;10079;55.740;37.662;2022-08-02T16:13:26;3.20;;;2.40;;
19836;SDS011;10079;55.740;37.662;2022-08-02T16:16:06;3.45;;;2.80;;
19836;SDS011;10079;55.740;37.662;2022-08-02T16:18:50;4.68;;;3.05;;
19836;SDS011;10079;55.740;37.662;2022-08-02T16:21:32;2.62;;;2.42;;
19836;SDS011;10079;55.740;37.662;2022-08-02T16:24:12;3.15;;;2.85;;
19836;SDS011;10079;55.740;37.662;2022-08-02T16:26:53;2.75;;;2.47;;
19836;SDS011;10079;55.740;37.662;2022-08-02T16:29:37;2.60;;;2.40;;
19836;SDS011;10079;55.740;37.662;2022-08-02T16:43:08;3.95;;;2.62;;
19836;SDS011;10079;55.740;37.662;2022-08-02T16:46:01;7.07;;;2.83;;
19836;SDS011;10079;55.740;37.662;2022-08-02T16:48:45;3.08;;;2.62;;
19836;SDS011;10079;55.740;37.662;2022-08-02T16:51:38;3.90;;;2.87;;
19836;SDS011;10079;55.740;37.662;2022-08-02T16:54:19;5.55;;;2.80;;
19836;SDS011;10079;55.740;37.662;2022-08-02T17:07:43;3.08;;;2.75;;
19836;SDS011;10079;55.740;37.662;2022-08-02T17:10:27;5.80;;;2.83;;
19836;SDS011;10079;55.740;37.662;2022-08-02T17:13:11;5.72;;;3.08;;
19836;SDS011;10079;55.740;37.662;2022-08-02T17:16:01;2.95;;;2.55;;
19836;SDS011;10079;55.740;37.662;2022-08-02T17:18:50;6.57;;;3.17;;
19836;SDS011;10079;55.740;37.662;2022-08-02T17:21:31;4.95;;;3.67;;
19836;SDS011;10079;55.740;37.662;2022-08-02T17:24:11;3.67;;;2.92;;
19836;SDS011;10079;55.740;37.662;2022-08-02T17:26:56;3.80;;;3.45;;
19836;SDS011;10079;55.740;37.662;2022-08-02T17:29:36;5.15;;;2.90;;
19836;SDS011;10079;55.740;37.662;2022-08-02T17:32:18;4.62;;;3.40;;
19836;SDS011;10079;55.740;37.662;2022-08-02T17:34:58;6.85;;;3.42;;
19836;SDS011;10079;55.740;37.662;2022-08-02T17:37:42;4.70;;;3.65;;
19836;SDS011;10079;55.740;37.662;2022-08-02T17:40:23;6.37;;;3.30;;
19836;SDS011;10079;55.740;37.662;2022-08-02T17:43:04;7.73;;;3.30;;
19836;SDS011;10079;55.740;37.662;2022-08-02T17:45:57;7.10;;;3.17;;
19836;SDS011;10079;55.740;37.662;2022-08-02T17:48:47;4.17;;;3.20;;
19836;SDS011;10079;55.740;37.662;2022-08-02T17:51:28;7.57;;;3.33;;
19836;SDS011;10079;55.740;37.662;2022-08-02T17:54:09;8.83;;;3.60;;
19836;SDS011;10079;55.740;37.662;2022-08-02T17:56:49;6.13;;;3.43;;
19836;SDS011;10079;55.740;37.662;2022-08-02T17:59:30;4.97;;;3.20;;
19836;SDS011;10079;55.740;37.662;2022-08-02T18:02:11;9.60;;;3.70;;
19836;SDS011;10079;55.740;37.662;2022-08-02T18:04:55;4.80;;;3.47;;
19836;SDS011;10079;55.740;37.662;2022-08-02T18:07:36;6.07;;;3.67;;
19836;SDS011;10079;55.740;37.662;2022-08-02T18:10:20;7.40;;;3.60;;
19836;SDS011;10079;55.740;37.662;2022-08-02T18:13:01;4.73;;;3.33;;
19836;SDS011;10079;55.740;37.662;2022-08-02T18:15:42;5.63;;;3.70;;
19836;SDS011;10079;55.740;37.662;2022-08-02T18:18:23;6.50;;;3.50;;
19836;SDS011;10079;55.740;37.662;2022-08-02T18:21:04;6.80;;;4.03;;
19836;SDS011;10079;55.740;37.662;2022-08-02T18:23:45;6.10;;;3.30;;
19836;SDS011;10079;55.740;37.662;2022-08-02T18:26:29;8.97;;;3.77;;
19836;SDS011;10079;55.740;37.662;2022-08-02T18:29:10;5.70;;;3.50;;
19836;SDS011;10079;55.740;37.662;2022-08-02T18:31:51;5.10;;;3.40;;
19836;SDS011;10079;55.740;37.662;2022-08-02T18:34:35;8.57;;;3.97;;
19836;SDS011;10079;55.740;37.662;2022-08-02T18:37:16;7.30;;;4.10;;
19836;SDS011;10079;55.740;37.662;2022-08-02T18:39:57;5.03;;;3.80;;
19836;SDS011;10079;55.740;37.662;2022-08-02T18:42:38;8.43;;;4.53;;
19836;SDS011;10079;55.740;37.662;2022-08-02T18:45:19;9.37;;;3.77;;
19836;SDS011;10079;55.740;37.662;2022-08-02T18:47:59;7.00;;;4.10;;
19836;SDS011;10079;55.740;37.662;2022-08-02T18:50:40;9.33;;;4.20;;
19836;SDS011;10079;55.740;37.662;2022-08-02T18:53:21;6.23;;;4.40;;
19836;SDS011;10079;55.740;37.662;2022-08-02T18:56:02;8.03;;;4.63;;
19836;SDS011;10079;55.740;37.662;2022-08-02T18:58:47;9.20;;;5.00;;
19836;SDS011;10079;55.740;37.662;2022-08-02T19:01:28;9.77;;;5.63;;
19836;SDS011;10079;55.740;37.662;2022-08-02T19:04:09;13.30;;;6.90;;
19836;SDS011;10079;55.740;37.662;2022-08-02T19:06:50;11.07;;;5.97;;
19836;SDS011;10079;55.740;37.662;2022-08-02T19:09:30;10.37;;;5.50;;
19836;SDS011;10079;55.740;37.662;2022-08-02T19:12:11;12.93;;;5.77;;
19836;SDS011;10079;55.740;37.662;2022-08-02T19:14:55;13.33;;;6.33;;
19836;SDS011;10079;55.740;37.662;2022-08-02T19:17:40;9.63;;;5.50;;
19836;SDS011;10079;55.740;37.662;2022-08-02T19:20:20;12.50;;;5.70;;
19836;SDS011;10079;55.740;37.662;2022-08-02T19:23:14;7.50;;;4.87;;
19836;SDS011;10079;55.740;37.662;2022-08-02T19:25:56;12.33;;;5.17;;
19836;SDS011;10079;55.740;37.662;2022-08-02T19:28:40;9.13;;;5.40;;
19836;SDS011;10079;55.740;37.662;2022-08-02T19:31:21;8.63;;;4.97;;
19836;SDS011;10079;55.740;37.662;2022-08-02T19:34:02;9.47;;;4.77;;
19836;SDS011;10079;55.740;37.662;2022-08-02T19:36:52;7.67;;;4.57;;
19836;SDS011;10079;55.740;37.662;2022-08-02T19:39:32;13.13;;;5.60;;
19836;SDS011;10079;55.740;37.662;2022-08-02T19:42:13;12.30;;;5.60;;
19836;SDS011;10079;55.740;37.662;2022-08-02T19:44:55;8.30;;;5.17;;
19836;SDS011;10079;55.740;37.662;2022-08-02T19:47:36;9.77;;;5.87;;
19836;SDS011;10079;55.740;37.662;2022-08-02T19:50:17;10.67;;;5.53;;
19836;SDS011;10079;55.740;37.662;2022-08-02T19:52:58;12.83;;;6.00;;
19836;SDS011;10079;55.740;37.662;2022-08-02T19:55:39;11.13;;;6.10;;
19836;SDS011;10079;55.740;37.662;2022-08-02T19:58:20;12.50;;;5.67;;
19836;SDS011;10079;55.740;37.662;2022-08-02T20:01:02;8.10;;;5.47;;
19836;SDS011;10079;55.740;37.662;2022-08-02T20:03:43;10.63;;;5.60;;
19836;SDS011;10079;55.740;37.662;2022-08-02T20:06:24;6.97;;;5.53;;
19836;SDS011;10079;55.740;37.662;2022-08-02T20:09:05;11.43;;;5.83;;
19836;SDS011;10079;55.740;37.662;2022-08-02T20:11:49;9.23;;;5.77;;
19836;SDS011;10079;55.740;37.662;2022-08-02T20:14:34;10.87;;;5.90;;
19836;SDS011;10079;55.740;37.662;2022-08-02T20:17:23;10.23;;;5.83;;
19836;SDS011;10079;55.740;37.662;2022-08-02T20:20:07;10.40;;;6.10;;